createdAt,value
2022-11-29T00:01:23.533Z,25.50
2022-11-29T00:02:55.548Z,26.63
2022-11-29T00:04:27.745Z,26.63
2022-11-29T00:06:10.954Z,29.58
2022-11-29T00:07:42.775Z,26.00
2022-11-29T00:09:14.763Z,28.67
2022-11-29T00:10:46.848Z,28.60
2022-11-29T00:12:18.627Z,29.15
2022-11-29T00:13:50.428Z,28.13
2022-11-29T00:15:22.158Z,29.55
2022-11-29T00:16:56.891Z,28.17
2022-11-29T00:18:28.664Z,29.40
2022-11-29T00:20:00.375Z,27.58
2022-11-29T00:21:32.108Z,30.48
2022-11-29T00:23:03.909Z,27.98
2022-11-29T00:24:36.779Z,30.88
2022-11-29T00:26:08.543Z,30.55
2022-11-29T00:27:40.276Z,30.67
2022-11-29T00:29:13.188Z,30.95
2022-11-29T00:30:44.999Z,31.00
2022-11-29T00:32:16.745Z,33.35
2022-11-29T00:33:49.476Z,32.03
2022-11-29T00:35:21.257Z,32.03
2022-11-29T00:36:53.007Z,30.77
2022-11-29T00:38:24.768Z,29.10
2022-11-29T00:39:56.565Z,33.65
2022-11-29T00:41:28.290Z,30.65
2022-11-29T00:43:00.027Z,29.83
2022-11-29T00:44:31.785Z,29.83
2022-11-29T00:46:04.806Z,31.77
2022-11-29T00:47:36.635Z,30.52
2022-11-29T00:49:08.504Z,28.75
2022-11-29T00:50:40.225Z,31.88
2022-11-29T00:52:11.948Z,33.85
2022-11-29T00:53:43.799Z,29.42
2022-11-29T00:55:15.731Z,30.73
2022-11-29T00:56:47.464Z,28.08
2022-11-29T00:58:20.674Z,30.25
2022-11-29T00:59:52.384Z,29.23
2022-11-29T01:01:24.202Z,28.80
2022-11-29T01:02:55.969Z,28.58
2022-11-29T01:04:27.706Z,31.10
2022-11-29T01:06:05.582Z,28.05
2022-11-29T01:07:37.343Z,28.15
2022-11-29T01:09:09.300Z,30.33
2022-11-29T01:10:41.743Z,27.85
2022-11-29T01:12:13.497Z,31.88
2022-11-29T01:13:45.587Z,28.17
2022-11-29T01:15:17.482Z,28.20
2022-11-29T01:16:49.332Z,29.67
2022-11-29T01:18:21.114Z,29.52
2022-11-29T01:19:52.853Z,32.40
2022-11-29T01:21:25.098Z,30.20
2022-11-29T01:22:56.829Z,29.75
2022-11-29T01:24:30.244Z,32.85
2022-11-29T01:26:09.063Z,35.55
2022-11-29T01:27:41.195Z,28.35
2022-11-29T01:29:13.520Z,29.20
2022-11-29T01:30:46.676Z,32.13
2022-11-29T01:32:18.471Z,36.00
2022-11-29T01:33:54.132Z,33.95
2022-11-29T01:35:25.905Z,35.50
2022-11-29T01:36:57.673Z,33.30
2022-11-29T01:38:29.436Z,32.97
2022-11-29T01:40:01.285Z,34.03
2022-11-29T01:41:35.060Z,33.33
2022-11-29T01:43:17.052Z,30.85
2022-11-29T01:45:06.744Z,31.90
2022-11-29T01:46:41.498Z,35.08
2022-11-29T01:48:14.534Z,31.40
2022-11-29T01:49:48.860Z,30.73
2022-11-29T01:51:21.519Z,32.15
2022-11-29T01:52:53.435Z,32.85
2022-11-29T01:54:25.919Z,31.63
2022-11-29T01:56:03.753Z,31.75
2022-11-29T01:57:39.408Z,35.13
2022-11-29T01:59:14.636Z,34.15
2022-11-29T02:00:46.895Z,33.60
2022-11-29T02:02:24.706Z,34.78
2022-11-29T02:03:56.487Z,34.90
2022-11-29T02:05:28.436Z,33.72
2022-11-29T02:07:00.613Z,34.25
2022-11-29T02:08:38.331Z,33.92
2022-11-29T02:10:10.752Z,33.97
2022-11-29T02:12:03.618Z,33.85
2022-11-29T02:13:57.725Z,37.67
2022-11-29T02:15:39.132Z,37.35
2022-11-29T02:19:21.035Z,40.08
2022-11-29T02:21:11.318Z,36.22
2022-11-29T02:23:14.133Z,37.50
2022-11-29T02:25:03.040Z,37.53
2022-11-29T02:27:02.631Z,36.30
2022-11-29T02:28:48.494Z,37.22
2022-11-29T02:30:30.018Z,35.90
2022-11-29T02:32:49.845Z,36.40
2022-11-29T02:34:27.299Z,42.33
2022-11-29T02:36:23.732Z,40.65
2022-11-29T02:38:10.628Z,37.90
2022-11-29T02:39:57.874Z,39.33
2022-11-29T02:41:44.824Z,39.90
2022-11-29T02:43:30.993Z,37.40
2022-11-29T02:45:45.898Z,38.03
2022-11-29T02:47:48.797Z,41.35
2022-11-29T02:49:46.408Z,40.85
2022-11-29T02:51:25.820Z,42.75
2022-11-29T02:53:16.071Z,39.83
2022-11-29T02:54:54.831Z,41.90
2022-11-29T02:56:36.890Z,41.20
2022-11-29T02:58:20.675Z,39.92
2022-11-29T02:59:55.057Z,38.95
2022-11-29T03:01:51.099Z,39.08
2022-11-29T03:03:33.180Z,41.78
2022-11-29T03:05:18.723Z,41.22
2022-11-29T03:07:08.729Z,44.25
2022-11-29T03:08:58.678Z,42.70
2022-11-29T03:11:04.556Z,43.00
2022-11-29T03:12:46.364Z,41.75
2022-11-29T03:14:27.413Z,42.33
2022-11-29T03:16:16.944Z,44.80
2022-11-29T03:17:56.840Z,43.58
2022-11-29T03:19:46.960Z,42.33
2022-11-29T03:21:32.448Z,44.80
2022-11-29T03:23:16.419Z,43.97
2022-11-29T03:25:01.300Z,48.45
2022-11-29T03:26:42.258Z,44.22
2022-11-29T03:28:31.221Z,45.65
2022-11-29T03:30:09.698Z,42.28
2022-11-29T03:32:25.769Z,41.58
2022-11-29T03:34:18.334Z,43.88
2022-11-29T03:36:13.008Z,46.17
2022-11-29T03:37:55.403Z,43.92
2022-11-29T03:39:57.572Z,45.55
2022-11-29T03:41:49.706Z,44.03
2022-11-29T03:43:30.693Z,42.22
2022-11-29T03:45:14.621Z,42.90
2022-11-29T03:47:12.456Z,41.35
2022-11-29T03:48:48.980Z,42.53
2022-11-29T03:50:27.518Z,43.33
2022-11-29T03:52:17.745Z,38.95
2022-11-29T03:53:57.377Z,41.72
2022-11-29T03:56:07.618Z,41.50
2022-11-29T03:58:16.297Z,42.80
2022-11-29T03:59:54.685Z,43.58
2022-11-29T04:02:12.251Z,46.38
2022-11-29T04:04:17.860Z,44.17
2022-11-29T04:06:10.426Z,43.40
2022-11-29T04:08:29.967Z,44.05
2022-11-29T04:10:32.663Z,47.20
2022-11-29T04:12:13.548Z,45.42
2022-11-29T04:13:56.884Z,46.90
2022-11-29T04:15:46.767Z,42.80
2022-11-29T04:17:33.337Z,47.00
2022-11-29T04:19:32.551Z,41.78
2022-11-29T04:21:30.732Z,40.47
2022-11-29T04:23:39.620Z,41.95
2022-11-29T04:25:45.580Z,41.25
2022-11-29T04:27:44.865Z,43.25
2022-11-29T04:29:50.215Z,43.22
2022-11-29T04:31:28.230Z,43.15
2022-11-29T04:33:28.069Z,40.75
2022-11-29T04:35:13.001Z,42.38
2022-11-29T04:37:03.440Z,40.20
2022-11-29T04:39:02.915Z,42.95
2022-11-29T04:40:57.175Z,39.15
2022-11-29T04:42:54.127Z,39.55
2022-11-29T04:44:44.807Z,43.22
2022-11-29T04:46:22.574Z,35.15
2022-11-29T04:48:24.738Z,39.63
2022-11-29T04:50:11.701Z,43.08
2022-11-29T04:52:09.656Z,37.92
2022-11-29T04:53:55.565Z,39.67
2022-11-29T04:55:52.317Z,40.05
2022-11-29T04:57:30.096Z,40.22
2022-11-29T04:59:27.989Z,37.53
2022-11-29T05:01:24.526Z,39.10
2022-11-29T05:03:07.092Z,39.05
2022-11-29T05:04:53.755Z,39.38
2022-11-29T05:06:37.788Z,38.63
2022-11-29T05:08:37.181Z,37.55
2022-11-29T05:10:37.974Z,41.72
2022-11-29T05:12:27.984Z,41.38
2022-11-29T05:14:15.164Z,38.90
2022-11-29T05:16:11.588Z,40.35
2022-11-29T05:18:22.297Z,39.40
2022-11-29T05:20:28.270Z,39.83
2022-11-29T05:22:19.903Z,39.17
2022-11-29T05:27:17.959Z,38.20
2022-11-29T05:29:01.777Z,36.72
2022-11-29T05:30:52.876Z,38.28
2022-11-29T05:32:52.306Z,38.07
2022-11-29T05:34:56.608Z,37.00
2022-11-29T05:36:43.546Z,37.50
2022-11-29T05:38:49.252Z,37.33
2022-11-29T05:40:48.285Z,40.15
2022-11-29T05:42:57.537Z,39.22
2022-11-29T05:44:45.352Z,42.35
2022-11-29T05:46:26.976Z,41.13
2022-11-29T05:48:14.125Z,38.72
2022-11-29T05:50:13.959Z,39.97
2022-11-29T05:52:03.457Z,39.55
2022-11-29T05:53:48.659Z,40.53
2022-11-29T05:55:40.673Z,38.30
2022-11-29T05:57:27.028Z,38.05
2022-11-29T05:59:08.103Z,37.33
2022-11-29T06:01:02.024Z,37.75
2022-11-29T06:02:54.051Z,38.88
2022-11-29T06:04:59.847Z,39.88
2022-11-29T06:06:42.576Z,36.72
2022-11-29T06:08:40.104Z,38.05
2022-11-29T06:10:17.889Z,36.60
2022-11-29T06:11:56.732Z,39.60
2022-11-29T06:14:07.697Z,36.47
2022-11-29T06:15:57.847Z,37.00
2022-11-29T06:17:46.929Z,38.15
2022-11-29T06:19:45.206Z,36.88
2022-11-29T06:21:22.983Z,37.83
2022-11-29T06:23:21.134Z,38.90
2022-11-29T06:25:07.896Z,38.10
2022-11-29T06:27:00.737Z,37.05
2022-11-29T06:28:41.693Z,37.53
2022-11-29T06:30:15.902Z,39.55
2022-11-29T06:31:55.675Z,38.92
2022-11-29T06:33:42.762Z,36.75
2022-11-29T06:35:34.624Z,36.65
2022-11-29T06:37:15.625Z,39.33
2022-11-29T06:38:47.624Z,38.95
2022-11-29T06:40:19.476Z,36.67
2022-11-29T06:41:51.341Z,34.58
2022-11-29T06:43:24.243Z,35.35
2022-11-29T06:44:56.194Z,38.08
2022-11-29T06:46:46.048Z,38.30
2022-11-29T06:48:24.498Z,37.55
2022-11-29T06:50:14.868Z,39.45
2022-11-29T06:52:11.699Z,40.92
2022-11-29T06:53:51.678Z,42.45
2022-11-29T06:55:33.411Z,41.78
2022-11-29T06:57:23.664Z,39.67
2022-11-29T06:59:26.127Z,38.75
2022-11-29T07:01:10.869Z,43.40
2022-11-29T07:02:50.445Z,43.05
2022-11-29T07:04:48.653Z,39.60
2022-11-29T07:06:24.124Z,41.10
2022-11-29T07:07:58.662Z,39.85
2022-11-29T07:09:34.509Z,39.90
2022-11-29T07:11:06.579Z,39.88
2022-11-29T07:12:38.601Z,37.25
2022-11-29T07:14:10.992Z,36.60
2022-11-29T07:15:48.198Z,39.20
2022-11-29T07:17:41.860Z,37.28
2022-11-29T07:19:28.207Z,41.17
2022-11-29T07:21:25.392Z,39.60
2022-11-29T07:23:09.542Z,43.05
2022-11-29T07:25:09.049Z,39.17
2022-11-29T07:26:59.315Z,39.42
2022-11-29T07:28:49.586Z,30.63
2022-11-29T07:30:50.197Z,42.53
2022-11-29T07:32:38.391Z,41.58
2022-11-29T07:34:25.106Z,37.03
2022-11-29T07:36:01.737Z,41.30
2022-11-29T07:37:58.648Z,38.60
2022-11-29T07:39:59.177Z,39.92
2022-11-29T07:41:43.648Z,41.35
2022-11-29T07:43:31.237Z,42.13
2022-11-29T07:45:06.013Z,36.53
2022-11-29T07:46:37.836Z,39.17
2022-11-29T07:48:11.929Z,35.45
2022-11-29T07:49:43.685Z,41.05
2022-11-29T07:51:15.477Z,37.10
2022-11-29T07:52:48.297Z,35.97
2022-11-29T07:54:20.209Z,35.97
2022-11-29T07:55:52.147Z,35.95
2022-11-29T07:57:23.880Z,33.88
2022-11-29T07:58:55.690Z,38.22
2022-11-29T08:00:27.615Z,33.85
2022-11-29T08:01:59.509Z,34.00
2022-11-29T08:03:31.350Z,35.55
2022-11-29T08:05:04.081Z,34.40
2022-11-29T08:06:36.717Z,35.33
2022-11-29T08:08:08.470Z,36.80
2022-11-29T08:09:40.227Z,37.95
2022-11-29T08:11:13.038Z,39.67
2022-11-29T08:12:47.908Z,36.28
2022-11-29T08:14:19.658Z,35.83
2022-11-29T08:15:51.466Z,38.20
2022-11-29T08:17:23.375Z,36.58
2022-11-29T08:18:55.250Z,35.53
2022-11-29T08:20:27.018Z,42.80
2022-11-29T08:21:58.890Z,34.97
2022-11-29T08:23:30.655Z,34.58
2022-11-29T08:25:03.269Z,33.78
2022-11-29T08:26:35.087Z,34.20
2022-11-29T08:28:06.948Z,31.75
2022-11-29T08:29:38.741Z,34.92
2022-11-29T08:31:12.947Z,32.03
2022-11-29T08:32:51.113Z,34.58
2022-11-29T08:34:24.404Z,33.97
2022-11-29T08:35:56.702Z,34.83
2022-11-29T08:37:28.451Z,35.10
2022-11-29T08:39:08.930Z,33.08
2022-11-29T08:40:41.387Z,35.67
2022-11-29T08:42:13.171Z,33.47
2022-11-29T08:43:45.116Z,33.97
2022-11-29T08:45:17.069Z,34.85
2022-11-29T08:47:07.612Z,35.13
2022-11-29T08:48:39.560Z,38.80
2022-11-29T08:50:16.651Z,38.85
2022-11-29T08:51:48.395Z,36.78
2022-11-29T08:53:39.145Z,39.50
2022-11-29T08:55:10.896Z,44.90
2022-11-29T08:58:34.346Z,41.78
2022-11-29T09:00:07.472Z,38.40
2022-11-29T09:01:39.275Z,32.78
2022-11-29T09:03:29.696Z,36.17
2022-11-29T09:05:01.493Z,40.78
2022-11-29T09:06:38.200Z,33.72
2022-11-29T09:08:09.970Z,35.95
2022-11-29T09:09:41.703Z,39.65
2022-11-29T09:11:17.213Z,32.25
2022-11-29T09:12:50.668Z,35.15
2022-11-29T09:14:22.954Z,37.58
2022-11-29T09:15:54.911Z,37.97
2022-11-29T09:17:27.216Z,37.15
2022-11-29T09:18:59.236Z,38.58
2022-11-29T09:20:31.853Z,32.35
2022-11-29T09:22:03.752Z,35.60
2022-11-29T09:23:40.841Z,32.33
2022-11-29T09:25:12.597Z,32.47
2022-11-29T09:26:48.267Z,30.00
2022-11-29T09:28:20.009Z,31.20
2022-11-29T09:29:51.793Z,27.75
2022-11-29T09:31:23.581Z,30.05
2022-11-29T09:32:55.368Z,29.00
2022-11-29T09:34:27.117Z,27.88
2022-11-29T09:35:59.168Z,31.40
2022-11-29T09:37:30.914Z,31.70
2022-11-29T09:39:03.013Z,32.50
2022-11-29T09:40:41.230Z,32.55
2022-11-29T09:42:32.885Z,33.78
2022-11-29T09:46:33.916Z,46.83
2022-11-29T09:48:35.248Z,44.15
2022-11-29T09:50:36.354Z,47.35
2022-11-29T09:52:23.304Z,48.28
2022-11-29T09:54:22.722Z,39.15
2022-11-29T09:56:09.772Z,43.00
2022-11-29T09:57:44.149Z,37.55
2022-11-29T09:59:24.932Z,38.97
2022-11-29T10:01:01.579Z,38.70
2022-11-29T10:02:47.823Z,32.22
2022-11-29T10:04:24.982Z,38.35
2022-11-29T10:06:07.698Z,34.92
2022-11-29T10:07:46.315Z,35.17
2022-11-29T10:09:18.644Z,27.05
2022-11-29T10:10:55.538Z,29.00
2022-11-29T10:12:39.738Z,28.15
2022-11-29T10:14:17.950Z,27.40
2022-11-29T10:15:53.975Z,28.52
2022-11-29T10:17:38.753Z,26.95
2022-11-29T10:19:32.846Z,28.67
2022-11-29T10:21:14.539Z,29.58
2022-11-29T10:22:54.593Z,27.40
2022-11-29T10:24:28.721Z,28.33
2022-11-29T10:26:00.939Z,24.38
2022-11-29T10:27:32.668Z,24.63
2022-11-29T10:29:04.584Z,25.02
2022-11-29T10:30:36.585Z,26.98
2022-11-29T10:32:16.016Z,24.13
2022-11-29T10:33:48.742Z,26.15
2022-11-29T10:35:21.002Z,24.73
2022-11-29T10:37:02.773Z,25.25
2022-11-29T10:38:34.567Z,27.25
2022-11-29T10:40:16.196Z,24.17
2022-11-29T10:41:55.680Z,27.63
2022-11-29T10:43:27.451Z,29.15
2022-11-29T10:45:00.201Z,28.92
2022-11-29T10:46:37.004Z,25.98
2022-11-29T10:48:15.869Z,31.73
2022-11-29T10:49:47.746Z,27.27
2022-11-29T10:51:19.779Z,25.65
2022-11-29T10:52:57.194Z,28.33
2022-11-29T10:54:40.313Z,28.98
2022-11-29T10:56:31.300Z,27.73
2022-11-29T10:58:09.723Z,28.52
2022-11-29T10:59:41.513Z,29.27
2022-11-29T11:01:16.265Z,23.73
2022-11-29T11:02:48.149Z,27.48
2022-11-29T11:04:31.500Z,27.70
2022-11-29T11:06:18.692Z,25.15
2022-11-29T11:07:57.678Z,27.38
2022-11-29T11:09:36.643Z,25.98
2022-11-29T11:11:09.042Z,25.63
2022-11-29T11:12:40.808Z,28.45
2022-11-29T11:14:23.488Z,25.70
2022-11-29T11:16:20.177Z,29.40
2022-11-29T11:18:01.520Z,27.60
2022-11-29T11:19:34.775Z,24.40
2022-11-29T11:21:11.640Z,25.23
2022-11-29T11:22:44.117Z,26.55
2022-11-29T11:24:40.062Z,23.88
2022-11-29T11:26:14.066Z,24.15
2022-11-29T11:27:46.044Z,25.92
2022-11-29T11:29:22.244Z,28.45
2022-11-29T11:31:08.367Z,28.30
2022-11-29T11:32:40.268Z,26.10
2022-11-29T11:34:26.445Z,26.05
2022-11-29T11:36:07.475Z,25.83
2022-11-29T11:37:39.260Z,29.02
2022-11-29T11:39:13.136Z,25.98
2022-11-29T11:40:45.289Z,27.40
2022-11-29T11:42:37.256Z,26.63
2022-11-29T11:44:52.586Z,27.85
2022-11-29T11:46:49.434Z,29.60
2022-11-29T11:48:21.985Z,28.63
2022-11-29T11:50:04.824Z,28.65
2022-11-29T11:51:36.938Z,28.38
2022-11-29T11:53:20.556Z,25.70
2022-11-29T11:54:56.070Z,26.77
2022-11-29T11:56:34.819Z,29.80
2022-11-29T11:58:12.310Z,27.13
2022-11-29T11:59:48.720Z,29.50
2022-11-29T12:01:25.473Z,28.05
2022-11-29T12:02:58.984Z,27.70
2022-11-29T12:04:35.955Z,26.20
2022-11-29T12:06:29.601Z,26.77
2022-11-29T12:08:08.484Z,29.65
2022-11-29T12:09:46.503Z,26.58
2022-11-29T12:11:18.870Z,25.83
2022-11-29T12:12:52.272Z,29.60
2022-11-29T12:14:46.427Z,29.73
2022-11-29T12:16:29.336Z,35.47
2022-11-29T12:18:39.793Z,28.92
2022-11-29T12:20:19.040Z,28.83
2022-11-29T12:21:56.298Z,29.73
2022-11-29T12:23:30.880Z,31.15
2022-11-29T12:25:06.699Z,30.35
2022-11-29T12:26:58.265Z,29.20
2022-11-29T12:28:33.919Z,27.63
2022-11-29T12:30:15.249Z,32.70
2022-11-29T12:32:14.700Z,30.52
2022-11-29T12:34:10.081Z,27.98
2022-11-29T12:35:48.278Z,29.45
2022-11-29T12:37:36.381Z,26.15
2022-11-29T12:39:16.145Z,29.08
2022-11-29T12:40:56.152Z,36.38
2022-11-29T12:42:39.812Z,28.85
2022-11-29T12:44:36.575Z,30.30
2022-11-29T12:46:29.328Z,30.25
2022-11-29T12:48:13.688Z,27.90
2022-11-29T12:50:16.485Z,28.10
2022-11-29T12:52:15.387Z,27.42
2022-11-29T12:53:53.223Z,29.05
2022-11-29T12:55:34.196Z,28.83
2022-11-29T12:57:23.860Z,27.45
2022-11-29T12:59:10.605Z,26.90
2022-11-29T13:01:01.148Z,27.10
2022-11-29T13:03:12.142Z,28.92
2022-11-29T13:05:02.518Z,27.73
2022-11-29T13:07:04.430Z,30.42
2022-11-29T13:08:45.304Z,32.95
2022-11-29T13:10:27.941Z,30.20
2022-11-29T13:12:17.591Z,31.25
2022-11-29T13:14:34.597Z,26.90
2022-11-29T13:16:46.541Z,31.17
2022-11-29T13:18:34.872Z,30.00
2022-11-29T13:20:31.330Z,30.65
2022-11-29T13:22:20.976Z,29.65
2022-11-29T13:24:10.090Z,27.98
2022-11-29T13:25:50.901Z,29.75
2022-11-29T13:27:31.498Z,28.40
2022-11-29T13:29:04.194Z,29.20
2022-11-29T13:30:36.495Z,27.92
2022-11-29T13:32:17.700Z,26.60
2022-11-29T13:33:58.155Z,27.60
2022-11-29T13:35:47.045Z,26.00
2022-11-29T13:37:34.446Z,27.27
2022-11-29T13:39:54.069Z,29.92
2022-11-29T13:41:45.829Z,30.27
2022-11-29T13:43:37.541Z,30.30
2022-11-29T13:45:21.301Z,36.85
2022-11-29T13:46:53.077Z,31.13
2022-11-29T13:48:57.212Z,31.90
2022-11-29T13:50:40.119Z,29.80
2022-11-29T13:52:28.759Z,29.80
2022-11-29T13:54:03.760Z,27.50
2022-11-29T13:56:00.652Z,29.02
2022-11-29T13:59:49.634Z,36.92
2022-11-29T14:01:22.656Z,31.13
2022-11-29T14:03:18.065Z,29.40
2022-11-29T14:04:50.062Z,32.17
2022-11-29T14:06:31.889Z,32.28
2022-11-29T14:08:25.791Z,32.88
2022-11-29T14:10:07.245Z,29.83
2022-11-29T14:13:16.593Z,36.05
2022-11-29T14:15:05.802Z,33.75
2022-11-29T14:16:43.507Z,33.38
2022-11-29T14:18:34.048Z,33.55
2022-11-29T14:20:43.995Z,35.13
2022-11-29T14:22:21.455Z,35.50
2022-11-29T14:23:53.216Z,32.95
2022-11-29T14:25:50.460Z,30.58
2022-11-29T14:27:20.702Z,34.78
2022-11-29T14:28:52.559Z,32.95
2022-11-29T14:30:45.079Z,32.35
2022-11-29T14:32:35.276Z,33.10
2022-11-29T14:34:15.136Z,34.42
2022-11-29T14:36:01.112Z,34.83
2022-11-29T14:37:48.008Z,31.70
2022-11-29T14:39:43.162Z,35.58
2022-11-29T14:41:53.447Z,33.83
2022-11-29T14:43:33.957Z,33.88
2022-11-29T14:45:31.469Z,29.43
2022-11-29T14:47:07.771Z,33.88
2022-11-29T14:48:44.444Z,33.22
2022-11-29T14:50:30.846Z,31.55
2022-11-29T14:52:17.251Z,32.03
2022-11-29T14:54:01.503Z,31.70
2022-11-29T14:55:38.844Z,36.03
2022-11-29T14:57:48.057Z,36.08
2022-11-29T14:59:38.573Z,33.25
2022-11-29T15:01:11.344Z,34.72
2022-11-29T15:02:52.221Z,33.92
2022-11-29T15:04:25.808Z,33.95
2022-11-29T15:05:59.305Z,32.10
2022-11-29T15:07:32.779Z,36.00
2022-11-29T15:09:13.090Z,34.03
2022-11-29T15:10:50.185Z,29.88
2022-11-29T15:12:27.766Z,30.95
2022-11-29T15:14:16.081Z,32.03
2022-11-29T15:16:16.937Z,34.08
2022-11-29T15:17:59.130Z,34.85
2022-11-29T15:20:20.245Z,32.72
2022-11-29T15:22:07.426Z,36.97
2022-11-29T15:23:43.515Z,33.78
2022-11-29T15:25:19.204Z,32.22
2022-11-29T15:27:01.079Z,32.38
2022-11-29T15:28:32.829Z,32.58
2022-11-29T15:30:21.147Z,34.42
2022-11-29T15:31:55.753Z,30.15
2022-11-29T15:33:28.838Z,31.55
2022-11-29T15:35:00.898Z,35.42
2022-11-29T15:36:34.409Z,34.47
2022-11-29T15:38:06.177Z,34.42
2022-11-29T15:39:37.865Z,33.05
2022-11-29T15:41:34.751Z,34.92
2022-11-29T15:43:06.449Z,32.67
2022-11-29T15:44:44.444Z,33.22
2022-11-29T15:46:27.723Z,32.45
2022-11-29T15:48:15.943Z,33.08
2022-11-29T15:49:47.846Z,35.63
2022-11-29T15:51:31.349Z,32.67
2022-11-29T15:53:10.560Z,33.03
2022-11-29T15:54:44.456Z,33.80
2022-11-29T15:56:36.039Z,32.95
2022-11-29T15:58:14.281Z,35.88
2022-11-29T15:59:56.835Z,34.75
2022-11-29T16:01:28.945Z,36.85
2022-11-29T16:03:02.597Z,34.30
2022-11-29T16:04:43.564Z,35.75
2022-11-29T16:06:39.072Z,34.92
2022-11-29T16:08:17.420Z,36.25
2022-11-29T16:09:59.243Z,35.28
2022-11-29T16:11:31.798Z,35.65
2022-11-29T16:13:22.366Z,34.35
2022-11-29T16:14:59.088Z,37.97
2022-11-29T16:16:34.224Z,36.65
2022-11-29T16:18:13.100Z,35.70
2022-11-29T16:19:47.029Z,39.45
2022-11-29T16:21:32.382Z,39.65
2022-11-29T16:23:12.645Z,39.00
2022-11-29T16:24:53.929Z,39.45
2022-11-29T16:26:36.822Z,39.83
2022-11-29T16:28:12.683Z,38.67
2022-11-29T16:29:46.456Z,37.78
2022-11-29T16:31:20.741Z,36.50
2022-11-29T16:33:03.612Z,40.17
2022-11-29T16:34:35.432Z,38.55
2022-11-29T16:36:15.050Z,37.30
2022-11-29T16:37:47.387Z,39.83
2022-11-29T16:39:25.431Z,41.47
2022-11-29T16:41:20.085Z,36.95
2022-11-29T16:43:24.159Z,38.28
2022-11-29T16:45:02.041Z,39.50
2022-11-29T16:46:41.523Z,40.67
2022-11-29T16:48:22.383Z,38.72
2022-11-29T16:50:02.979Z,42.53
2022-11-29T16:51:47.998Z,42.10
2022-11-29T16:53:35.065Z,40.90
2022-11-29T16:55:07.151Z,40.92
2022-11-29T16:56:39.181Z,37.15
2022-11-29T16:58:12.273Z,43.28
2022-11-29T16:59:44.187Z,40.80
2022-11-29T17:01:23.406Z,40.03
2022-11-29T17:02:55.295Z,41.90
2022-11-29T17:04:27.058Z,40.83
2022-11-29T17:05:58.813Z,41.08
2022-11-29T17:07:35.343Z,41.72
2022-11-29T17:09:07.403Z,39.75
2022-11-29T17:10:39.193Z,39.50
2022-11-29T17:12:13.752Z,42.42
2022-11-29T17:13:47.573Z,38.40
2022-11-29T17:15:19.289Z,42.67
2022-11-29T17:16:52.147Z,39.35
2022-11-29T17:18:24.004Z,42.58
2022-11-29T17:19:55.768Z,41.15
2022-11-29T17:21:31.652Z,41.95
2022-11-29T17:23:03.376Z,41.20
2022-11-29T17:24:35.329Z,38.97
2022-11-29T17:26:07.716Z,41.35
2022-11-29T17:27:39.531Z,41.10
2022-11-29T17:29:13.998Z,39.55
2022-11-29T17:30:45.706Z,41.00
2022-11-29T17:32:19.826Z,43.15
2022-11-29T17:33:54.284Z,42.65
2022-11-29T17:35:26.013Z,39.72
2022-11-29T17:36:57.872Z,39.47
2022-11-29T17:38:29.611Z,40.10
2022-11-29T17:40:01.344Z,41.88
2022-11-29T17:41:33.800Z,39.25
2022-11-29T17:43:06.345Z,41.63
2022-11-29T17:44:38.098Z,40.95
2022-11-29T17:46:11.808Z,43.90
2022-11-29T17:47:43.568Z,36.72
2022-11-29T17:49:15.402Z,40.80
2022-11-29T17:50:47.141Z,43.05
2022-11-29T17:52:18.932Z,42.05
2022-11-29T17:53:52.158Z,41.10
2022-11-29T17:55:26.966Z,40.85
2022-11-29T17:57:01.971Z,39.97
2022-11-29T17:58:34.731Z,42.22
2022-11-29T18:00:08.894Z,39.17
2022-11-29T18:01:40.688Z,36.95
2022-11-29T18:03:12.472Z,40.80
2022-11-29T18:04:44.763Z,36.40
2022-11-29T18:06:21.677Z,39.05
2022-11-29T18:07:59.153Z,40.15
2022-11-29T18:09:30.940Z,39.83
2022-11-29T18:11:08.047Z,42.90
2022-11-29T18:12:39.774Z,38.42
2022-11-29T18:14:13.382Z,40.38
2022-11-29T18:15:45.125Z,39.60
2022-11-29T18:17:16.951Z,40.00
2022-11-29T18:18:56.736Z,40.33
2022-11-29T18:20:28.498Z,40.75
2022-11-29T18:22:00.317Z,37.67
2022-11-29T18:23:34.149Z,42.08
2022-11-29T18:25:36.925Z,39.40
2022-11-29T18:26:57.876Z,42.00
2022-11-29T18:28:29.827Z,37.72
2022-11-29T18:30:01.580Z,40.58
2022-11-29T18:31:35.886Z,40.50
2022-11-29T18:33:07.739Z,41.63
2022-11-29T18:34:39.500Z,40.78
2022-11-29T18:36:14.456Z,36.10
2022-11-29T18:38:14.079Z,41.83
2022-11-29T18:39:37.949Z,45.05
2022-11-29T18:41:19.026Z,41.42
2022-11-29T18:42:51.167Z,42.03
2022-11-29T18:44:29.221Z,39.95
2022-11-29T18:46:19.838Z,39.92
2022-11-29T18:47:51.616Z,40.65
2022-11-29T18:49:23.511Z,38.30
2022-11-29T18:50:55.232Z,40.55
2022-11-29T18:52:26.985Z,38.60
2022-11-29T18:53:59.288Z,39.67
2022-11-29T18:55:31.034Z,36.22
2022-11-29T18:57:02.853Z,42.30
2022-11-29T18:58:34.667Z,35.72
2022-11-29T19:00:07.252Z,37.85
2022-11-29T19:01:43.311Z,35.80
2022-11-29T19:03:15.168Z,32.83
2022-11-29T19:04:48.319Z,35.75
2022-11-29T19:06:23.164Z,33.80
2022-11-29T19:07:54.920Z,35.97
2022-11-29T19:09:26.697Z,35.78
2022-11-29T19:10:58.466Z,41.33
2022-11-29T19:12:30.250Z,37.25
2022-11-29T19:14:04.674Z,37.17
2022-11-29T19:15:36.457Z,34.75
2022-11-29T19:17:08.284Z,39.17
2022-11-29T19:18:40.286Z,38.03
2022-11-29T19:20:12.461Z,37.67
2022-11-29T19:21:44.332Z,33.30
2022-11-29T19:23:16.236Z,36.22
2022-11-29T19:24:48.723Z,36.63
2022-11-29T19:26:22.108Z,44.22
2022-11-29T19:27:53.897Z,39.75
2022-11-29T19:29:25.624Z,40.60
2022-11-29T19:30:57.674Z,39.95
2022-11-29T19:32:29.454Z,43.50
2022-11-29T19:34:01.229Z,43.67
2022-11-29T19:35:34.579Z,41.20
2022-11-29T19:37:09.199Z,40.28
2022-11-29T19:38:41.658Z,42.55
2022-11-29T19:40:13.615Z,39.70
2022-11-29T19:41:47.650Z,41.10
2022-11-29T19:43:19.863Z,40.83
2022-11-29T19:45:16.041Z,39.67
2022-11-29T19:46:45.990Z,43.20
2022-11-29T19:48:17.787Z,42.85
2022-11-29T19:49:50.017Z,45.40
2022-11-29T19:51:23.389Z,43.58
2022-11-29T19:52:55.120Z,38.38
2022-11-29T19:54:26.863Z,40.33
2022-11-29T19:55:58.725Z,40.80
2022-11-29T19:57:30.490Z,37.72
2022-11-29T19:59:02.611Z,40.63
2022-11-29T20:00:34.347Z,42.65
2022-11-29T20:02:06.275Z,41.22
2022-11-29T20:03:38.681Z,39.15
2022-11-29T20:05:10.457Z,41.88
2022-11-29T20:06:43.012Z,42.10
2022-11-29T20:08:19.846Z,43.70
2022-11-29T20:09:53.024Z,42.22
2022-11-29T20:11:26.247Z,43.45
2022-11-29T20:12:58.066Z,41.20
2022-11-29T20:14:29.889Z,40.58
2022-11-29T20:16:10.589Z,41.55
2022-11-29T20:17:42.365Z,40.28
2022-11-29T20:19:16.870Z,42.45
2022-11-29T20:20:48.600Z,42.38
2022-11-29T20:22:20.416Z,43.35
2022-11-29T20:24:00.557Z,44.10
2022-11-29T20:25:33.787Z,41.10
2022-11-29T20:27:05.547Z,39.88
2022-11-29T20:28:37.448Z,43.95
2022-11-29T20:30:10.535Z,41.85
2022-11-29T20:31:49.913Z,46.15
2022-11-29T20:33:25.479Z,44.92
2022-11-29T20:34:59.144Z,43.40
2022-11-29T20:36:36.675Z,42.13
2022-11-29T20:38:28.809Z,43.00
2022-11-29T20:40:04.272Z,45.70
2022-11-29T20:41:51.273Z,48.60
2022-11-29T20:43:44.147Z,45.15
2022-11-29T20:45:16.935Z,44.67
2022-11-29T20:46:48.911Z,43.08
2022-11-29T20:48:23.152Z,44.58
2022-11-29T20:49:55.069Z,40.17
2022-11-29T20:51:34.911Z,47.53
2022-11-29T20:53:36.085Z,45.85
2022-11-29T20:55:08.246Z,46.35
2022-11-29T20:56:40.005Z,43.78
2022-11-29T20:58:11.739Z,47.35
2022-11-29T20:59:43.701Z,42.35
2022-11-29T21:01:15.843Z,44.58
2022-11-29T21:02:47.687Z,46.85
2022-11-29T21:04:23.342Z,42.80
2022-11-29T21:05:56.981Z,45.67
2022-11-29T21:07:29.311Z,46.20
2022-11-29T21:09:01.141Z,46.95
2022-11-29T21:10:33.224Z,46.72
2022-11-29T21:12:05.331Z,43.00
2022-11-29T21:13:37.981Z,45.45
2022-11-29T21:15:11.412Z,42.60
2022-11-29T21:16:43.379Z,44.00
2022-11-29T21:18:27.089Z,41.60
2022-11-29T21:19:59.148Z,46.60
2022-11-29T21:21:40.008Z,49.60
2022-11-29T21:23:27.335Z,43.00
2022-11-29T21:25:40.515Z,43.83
2022-11-29T21:27:17.527Z,43.65
2022-11-29T21:29:07.735Z,44.85
2022-11-29T21:30:39.976Z,43.63
2022-11-29T21:32:22.321Z,43.65
2022-11-29T21:33:54.355Z,43.65
2022-11-29T21:35:26.384Z,40.67
2022-11-29T21:36:59.804Z,45.95
2022-11-29T21:38:32.302Z,44.05
2022-11-29T21:40:04.880Z,40.80
2022-11-29T21:41:36.953Z,38.60
2022-11-29T21:43:08.733Z,41.60
